createdAt,value
2017-11-24T00:00:42.510Z,12.19
2017-11-24T00:01:43.922Z,12.23
2017-11-24T00:02:45.368Z,12.34
2017-11-24T00:03:46.776Z,12.33
2017-11-24T00:04:48.185Z,12.37
2017-11-24T00:05:49.598Z,12.21
2017-11-24T00:06:51.007Z,12.39
2017-11-24T00:07:52.419Z,12.37
2017-11-24T00:08:53.826Z,12.33
2017-11-24T00:09:55.253Z,12.31
2017-11-24T00:10:56.659Z,12.34
2017-11-24T00:11:58.074Z,12.46
2017-11-24T00:12:59.496Z,12.45
2017-11-24T00:14:00.908Z,12.37
2017-11-24T00:15:02.321Z,12.51
2017-11-24T00:16:03.727Z,12.57
2017-11-24T00:17:05.152Z,12.52
2017-11-24T00:18:06.565Z,12.45
2017-11-24T00:19:07.981Z,12.41
2017-11-24T00:20:09.397Z,12.42
2017-11-24T00:21:10.806Z,12.57
2017-11-24T00:22:12.212Z,12.63
2017-11-24T00:23:13.624Z,12.48
2017-11-24T00:24:15.034Z,12.48
2017-11-24T00:25:16.451Z,12.48
2017-11-24T00:26:17.865Z,12.48
2017-11-24T00:27:19.272Z,12.44
2017-11-24T00:28:20.720Z,12.46
2017-11-24T00:29:22.132Z,12.33
2017-11-24T00:30:23.543Z,12.45
2017-11-24T00:31:24.949Z,12.48
2017-11-24T00:32:26.371Z,12.38
2017-11-24T00:33:27.800Z,12.49
2017-11-24T00:34:29.208Z,12.48
2017-11-24T00:35:30.629Z,12.37
2017-11-24T00:37:52.464Z,12.33
2017-11-24T00:38:53.890Z,12.34
2017-11-24T00:39:55.303Z,12.23
2017-11-24T00:40:56.732Z,12.19
2017-11-24T00:41:58.180Z,12.24
2017-11-24T00:42:59.594Z,12.09
2017-11-24T00:44:01.010Z,12.13
2017-11-24T00:45:02.473Z,12.15
2017-11-24T00:46:03.857Z,12.29
2017-11-24T00:47:05.270Z,12.21
2017-11-24T00:48:06.683Z,12.19
2017-11-24T00:49:08.091Z,12.27
2017-11-24T00:50:09.512Z,12.08
2017-11-24T00:51:10.928Z,12.05
2017-11-24T00:52:12.342Z,12.12
2017-11-24T00:53:13.768Z,12.09
2017-11-24T00:54:15.182Z,12.23
2017-11-24T00:55:16.588Z,12.21
2017-11-24T00:56:18.015Z,12.23
2017-11-24T00:57:19.431Z,12.24
2017-11-24T00:58:20.852Z,12.34
2017-11-24T00:59:22.269Z,12.33
2017-11-24T01:00:23.683Z,12.31
2017-11-24T01:01:25.106Z,12.42
2017-11-24T01:02:26.522Z,12.45
2017-11-24T01:03:27.989Z,12.48
2017-11-24T01:04:29.400Z,12.46
2017-11-24T01:05:30.816Z,12.44
2017-11-24T01:06:32.245Z,12.44
2017-11-24T01:07:33.662Z,12.57
2017-11-24T01:08:35.074Z,12.42
2017-11-24T01:09:36.496Z,12.56
2017-11-24T01:10:37.967Z,12.54
2017-11-24T01:11:39.386Z,12.56
2017-11-24T01:12:40.797Z,12.60
2017-11-24T01:13:42.217Z,12.60
2017-11-24T01:14:43.626Z,12.60
2017-11-24T01:15:45.046Z,12.56
2017-11-24T01:16:46.461Z,12.66
2017-11-24T01:17:47.883Z,12.67
2017-11-24T01:18:49.291Z,12.75
2017-11-24T01:19:50.712Z,12.81
2017-11-24T01:20:52.128Z,12.64
2017-11-24T01:21:53.534Z,12.67
2017-11-24T01:22:54.954Z,12.48
2017-11-24T01:23:56.365Z,12.56
2017-11-24T01:24:57.784Z,12.66
2017-11-24T01:25:59.194Z,12.59
2017-11-24T01:27:00.621Z,12.54
2017-11-24T01:28:02.037Z,12.56
2017-11-24T01:29:03.445Z,12.60
2017-11-24T01:30:04.871Z,12.69
2017-11-24T01:31:06.298Z,12.74
2017-11-24T01:32:07.706Z,12.74
2017-11-24T01:33:09.120Z,12.77
2017-11-24T01:34:10.534Z,12.66
2017-11-24T01:35:11.951Z,12.69
2017-11-24T01:36:13.363Z,12.60
2017-11-24T01:37:14.772Z,12.63
2017-11-24T01:38:16.210Z,12.77
2017-11-24T01:39:17.601Z,12.77
2017-11-24T01:40:19.018Z,12.45
2017-11-24T01:41:20.437Z,12.56
2017-11-24T01:42:21.850Z,12.60
2017-11-24T01:43:23.388Z,12.74
2017-11-24T01:44:24.804Z,12.48
2017-11-24T01:45:26.221Z,12.51
2017-11-24T01:46:27.639Z,12.54
2017-11-24T01:47:29.053Z,12.54
2017-11-24T01:48:30.472Z,12.29
2017-11-24T01:49:31.902Z,12.56
2017-11-24T01:50:33.301Z,12.71
2017-11-24T01:51:34.718Z,12.59
2017-11-24T01:52:36.125Z,12.62
2017-11-24T01:53:37.542Z,12.69
2017-11-24T01:54:38.958Z,12.54
2017-11-24T01:55:40.372Z,12.46
2017-11-24T01:56:41.791Z,12.38
2017-11-24T01:57:43.212Z,12.38
2017-11-24T01:58:44.625Z,12.30
2017-11-24T01:59:46.040Z,12.38
2017-11-24T02:00:47.456Z,12.33
2017-11-24T02:01:48.873Z,12.24
2017-11-24T02:02:50.284Z,12.06
2017-11-24T02:03:51.696Z,12.08
2017-11-24T02:04:53.115Z,12.19
2017-11-24T02:05:54.537Z,12.06
2017-11-24T02:06:55.960Z,12.04
2017-11-24T02:07:57.373Z,12.08
2017-11-24T02:08:58.787Z,12.09
2017-11-24T02:10:00.207Z,12.15
2017-11-24T02:11:01.619Z,12.19
2017-11-24T02:12:03.035Z,12.26
2017-11-24T02:13:04.447Z,12.15
2017-11-24T02:14:05.871Z,12.05
2017-11-24T02:15:07.291Z,11.83
2017-11-24T02:16:08.799Z,11.90
2017-11-24T02:17:10.213Z,11.90
2017-11-24T02:18:11.632Z,11.93
2017-11-24T02:19:13.032Z,11.90
2017-11-24T02:20:14.454Z,11.90
2017-11-24T02:21:15.865Z,11.87
2017-11-24T02:22:17.283Z,11.83
2017-11-24T02:23:18.708Z,11.89
2017-11-24T02:24:20.118Z,11.96
2017-11-24T02:25:21.540Z,11.90
2017-11-24T02:26:22.949Z,11.99
2017-11-24T02:27:24.359Z,12.06
2017-11-24T02:28:25.782Z,12.08
2017-11-24T02:29:27.306Z,12.02
2017-11-24T02:30:28.732Z,11.99
2017-11-24T02:31:30.150Z,11.87
2017-11-24T02:32:31.562Z,11.85
2017-11-24T02:33:32.972Z,11.83
2017-11-24T02:34:34.384Z,11.94
2017-11-24T02:35:35.796Z,11.96
2017-11-24T02:36:37.218Z,11.80
2017-11-24T02:37:38.635Z,11.82
2017-11-24T02:38:40.054Z,11.97
2017-11-24T02:39:41.470Z,11.75
2017-11-24T02:40:42.883Z,11.78
2017-11-24T02:41:44.304Z,11.80
2017-11-24T02:42:45.719Z,11.75
2017-11-24T02:43:47.131Z,11.89
2017-11-24T02:44:48.550Z,11.85
2017-11-24T02:45:49.966Z,11.68
2017-11-24T02:46:51.391Z,11.87
2017-11-24T02:47:52.765Z,11.93
2017-11-24T02:48:54.182Z,11.89
2017-11-24T02:49:55.593Z,11.85
2017-11-24T02:50:57.012Z,11.90
2017-11-24T02:51:58.419Z,11.83
2017-11-24T02:52:59.836Z,11.89
2017-11-24T02:54:01.249Z,12.04
2017-11-24T02:55:02.657Z,12.08
2017-11-24T02:56:04.081Z,12.08
2017-11-24T02:57:05.503Z,12.05
2017-11-24T02:58:06.910Z,12.11
2017-11-24T02:59:08.320Z,11.93
2017-11-24T03:00:09.730Z,11.80
2017-11-24T03:01:11.163Z,11.94
2017-11-24T03:02:12.563Z,11.90
2017-11-24T03:03:13.988Z,11.99
2017-11-24T03:04:15.393Z,12.05
2017-11-24T03:05:16.824Z,12.09
2017-11-24T03:06:18.238Z,12.05
2017-11-24T03:07:19.642Z,12.11
2017-11-24T03:08:21.059Z,12.06
2017-11-24T03:09:22.467Z,12.02
2017-11-24T03:10:23.880Z,12.19
2017-11-24T03:11:25.301Z,12.09
2017-11-24T03:12:26.711Z,12.04
2017-11-24T03:13:28.123Z,11.93
2017-11-24T03:14:29.537Z,11.94
2017-11-24T03:15:30.950Z,11.94
2017-11-24T03:16:32.366Z,11.96
2017-11-24T03:17:33.774Z,11.74
2017-11-24T03:18:35.192Z,11.82
2017-11-24T03:19:36.604Z,11.82
2017-11-24T03:20:38.014Z,11.71
2017-11-24T03:21:39.429Z,11.64
2017-11-24T03:22:40.840Z,11.59
2017-11-24T03:23:42.262Z,11.50
2017-11-24T03:24:43.684Z,11.52
2017-11-24T03:25:45.085Z,11.59
2017-11-24T03:26:46.545Z,11.44
2017-11-24T03:27:47.962Z,11.41
2017-11-24T03:28:49.372Z,11.59
2017-11-24T03:29:50.792Z,11.71
2017-11-24T03:30:52.209Z,11.82
2017-11-24T03:31:53.621Z,11.87
2017-11-24T03:32:55.041Z,11.86
2017-11-24T03:33:56.472Z,11.87
2017-11-24T03:34:57.887Z,11.87
2017-11-24T03:35:59.301Z,11.90
2017-11-24T03:37:00.716Z,11.97
2017-11-24T03:38:02.122Z,11.97
2017-11-24T03:39:03.548Z,12.06
2017-11-24T03:40:04.972Z,11.97
2017-11-24T03:41:06.384Z,12.11
2017-11-24T03:42:07.808Z,11.96
2017-11-24T03:43:09.221Z,11.90
2017-11-24T03:44:10.634Z,11.93
2017-11-24T03:45:12.053Z,11.86
2017-11-24T03:46:13.475Z,11.94
2017-11-24T03:47:14.954Z,11.78
2017-11-24T03:48:16.372Z,11.80
2017-11-24T03:49:17.787Z,11.78
2017-11-24T03:50:19.189Z,11.86
2017-11-24T03:51:20.614Z,11.70
2017-11-24T03:52:22.031Z,11.83
2017-11-24T03:53:23.448Z,11.71
2017-11-24T03:54:24.870Z,11.74
2017-11-24T03:55:26.281Z,11.93
2017-11-24T03:56:27.700Z,11.90
2017-11-24T03:57:29.111Z,12.09
2017-11-24T03:58:30.536Z,11.96
2017-11-24T03:59:31.966Z,11.93
2017-11-24T04:00:33.352Z,11.93
2017-11-24T04:01:34.770Z,11.75
2017-11-24T04:02:36.199Z,11.83
2017-11-24T04:03:37.629Z,11.70
2017-11-24T04:04:39.053Z,11.64
2017-11-24T04:05:40.457Z,11.57
2017-11-24T04:06:41.872Z,11.85
2017-11-24T04:07:43.290Z,11.68
2017-11-24T04:08:44.710Z,11.85
2017-11-24T04:09:46.136Z,11.71
2017-11-24T04:10:47.546Z,11.70
2017-11-24T04:11:48.949Z,11.78
2017-11-24T04:12:50.439Z,11.75
2017-11-24T04:13:51.857Z,11.93
2017-11-24T04:14:53.278Z,11.94
2017-11-24T04:15:54.692Z,11.97
2017-11-24T04:16:57.029Z,11.93
2017-11-24T04:17:58.446Z,11.83
2017-11-24T04:18:59.858Z,11.78
2017-11-24T04:20:01.269Z,11.82
2017-11-24T04:21:02.683Z,11.87
2017-11-24T04:22:04.104Z,11.96
2017-11-24T04:23:05.519Z,11.99
2017-11-24T04:24:06.932Z,11.85
2017-11-24T04:25:08.346Z,11.82
2017-11-24T04:26:09.761Z,11.94
2017-11-24T04:27:11.178Z,11.75
2017-11-24T04:28:12.603Z,11.80
2017-11-24T04:29:14.014Z,11.87
2017-11-24T04:30:15.433Z,11.83
2017-11-24T04:31:16.844Z,11.94
2017-11-24T04:32:18.255Z,11.94
2017-11-24T04:33:19.673Z,11.90
2017-11-24T04:34:21.087Z,11.96
2017-11-24T04:35:22.502Z,11.99
2017-11-24T04:36:23.921Z,11.94
2017-11-24T04:37:25.330Z,11.85
2017-11-24T04:38:26.748Z,11.94
2017-11-24T04:39:28.166Z,11.86
2017-11-24T04:40:29.580Z,11.96
2017-11-24T04:41:30.997Z,11.89
2017-11-24T04:42:32.418Z,11.85
2017-11-24T04:43:33.831Z,11.77
2017-11-24T04:44:35.324Z,11.77
2017-11-24T04:45:36.744Z,11.75
2017-11-24T04:46:38.166Z,11.75
2017-11-24T04:47:39.573Z,11.99
2017-11-24T04:48:40.997Z,11.85
2017-11-24T04:49:42.412Z,11.90
2017-11-24T04:50:43.822Z,11.75
2017-11-24T04:51:45.241Z,11.78
2017-11-24T04:52:46.657Z,11.87
2017-11-24T04:53:48.075Z,11.74
2017-11-24T04:54:49.491Z,11.68
2017-11-24T04:55:50.908Z,11.62
2017-11-24T04:56:52.316Z,11.59
2017-11-24T04:57:53.770Z,11.52
2017-11-24T04:58:55.181Z,11.54
2017-11-24T04:59:56.597Z,11.39
2017-11-24T05:00:58.013Z,11.31
2017-11-24T05:01:59.428Z,11.50
2017-11-24T05:03:00.840Z,11.57
2017-11-24T05:04:02.256Z,11.59
2017-11-24T05:05:03.673Z,11.49
2017-11-24T05:06:05.082Z,11.41
2017-11-24T05:07:06.499Z,11.47
2017-11-24T05:08:07.912Z,11.59
2017-11-24T05:09:09.328Z,11.82
2017-11-24T05:10:10.741Z,11.64
2017-11-24T05:11:12.202Z,11.68
2017-11-24T05:12:13.612Z,11.75
2017-11-24T05:13:15.029Z,11.65
2017-11-24T05:14:16.443Z,11.75
2017-11-24T05:15:17.910Z,11.64
2017-11-24T05:16:19.319Z,11.70
2017-11-24T05:17:20.743Z,11.86
2017-11-24T05:18:22.161Z,11.90
2017-11-24T05:19:23.581Z,11.82
2017-11-24T05:20:24.979Z,11.71
2017-11-24T05:21:26.394Z,11.64
2017-11-24T05:22:27.807Z,11.62
2017-11-24T05:23:29.226Z,11.61
2017-11-24T05:24:30.643Z,11.64
2017-11-24T05:25:32.063Z,11.78
2017-11-24T05:26:33.478Z,11.82
2017-11-24T05:27:34.880Z,11.75
2017-11-24T05:28:36.294Z,11.80
2017-11-24T05:29:37.712Z,11.85
2017-11-24T05:30:39.134Z,11.86
2017-11-24T05:31:40.542Z,11.64
2017-11-24T05:32:41.954Z,11.59
2017-11-24T05:33:43.375Z,11.64
2017-11-24T05:34:44.780Z,11.74
2017-11-24T05:35:46.200Z,11.72
2017-11-24T05:36:47.723Z,11.82
2017-11-24T05:37:49.143Z,11.74
2017-11-24T05:38:50.567Z,11.56
2017-11-24T05:39:51.977Z,11.61
2017-11-24T05:40:53.391Z,11.72
2017-11-24T05:41:54.804Z,11.64
2017-11-24T05:42:56.214Z,11.68
2017-11-24T05:43:57.623Z,11.77
2017-11-24T05:44:59.044Z,11.82
2017-11-24T05:46:00.457Z,11.75
2017-11-24T05:47:01.876Z,11.52
2017-11-24T05:48:03.282Z,11.50
2017-11-24T05:49:04.700Z,11.47
2017-11-24T05:50:06.113Z,11.46
2017-11-24T05:51:07.521Z,11.62
2017-11-24T05:52:08.935Z,11.62
2017-11-24T05:53:10.353Z,11.80
2017-11-24T05:54:11.774Z,11.72
2017-11-24T05:55:13.174Z,11.64
2017-11-24T05:56:14.589Z,11.65
2017-11-24T05:57:16.009Z,11.50
2017-11-24T05:58:17.424Z,11.49
2017-11-24T05:59:18.839Z,11.35
2017-11-24T06:00:20.250Z,11.53
2017-11-24T06:01:21.660Z,11.54
2017-11-24T06:02:23.079Z,11.61
2017-11-24T06:03:24.494Z,11.41
2017-11-24T06:04:25.921Z,11.52
2017-11-24T06:05:27.319Z,11.50
2017-11-24T06:06:28.727Z,11.46
2017-11-24T06:07:30.145Z,11.64
2017-11-24T06:08:31.550Z,11.70
2017-11-24T06:09:32.972Z,11.62
2017-11-24T06:10:34.393Z,11.57
2017-11-24T06:11:35.810Z,11.53
2017-11-24T06:12:37.221Z,11.57
2017-11-24T06:13:38.632Z,11.59
2017-11-24T06:14:40.051Z,11.67
2017-11-24T06:15:41.465Z,11.50
2017-11-24T06:16:42.882Z,11.53
2017-11-24T06:17:44.301Z,11.17
2017-11-24T06:18:45.717Z,11.01
2017-11-24T06:19:47.143Z,10.80
2017-11-24T06:20:48.668Z,10.81
2017-11-24T06:21:50.085Z,10.98
2017-11-24T06:22:51.486Z,10.89
2017-11-24T06:23:52.908Z,11.03
2017-11-24T06:24:54.320Z,10.91
2017-11-24T06:25:55.747Z,10.94
2017-11-24T06:26:57.155Z,10.89
2017-11-24T06:27:58.640Z,10.60
2017-11-24T06:29:00.050Z,10.74
2017-11-24T06:30:01.475Z,10.80
2017-11-24T06:31:02.880Z,10.84
2017-11-24T06:32:04.302Z,10.76
2017-11-24T06:33:05.709Z,10.81
2017-11-24T06:34:07.128Z,10.83
2017-11-24T06:35:08.547Z,10.81
2017-11-24T06:36:09.964Z,10.71
2017-11-24T06:37:11.378Z,10.58
2017-11-24T06:38:12.789Z,10.65
2017-11-24T06:39:14.201Z,10.68
2017-11-24T06:40:15.611Z,10.42
2017-11-24T06:41:17.032Z,10.47
2017-11-24T06:42:18.454Z,10.62
2017-11-24T06:43:19.859Z,10.66
2017-11-24T06:44:21.266Z,10.78
2017-11-24T06:45:22.684Z,10.65
2017-11-24T06:46:24.087Z,10.62
2017-11-24T06:47:25.501Z,10.71
2017-11-24T06:48:26.913Z,10.70
2017-11-24T06:49:28.324Z,10.73
2017-11-24T06:50:29.743Z,10.55
2017-11-24T06:51:31.152Z,10.63
2017-11-24T06:52:32.564Z,10.66
2017-11-24T06:53:34.004Z,10.68
2017-11-24T06:54:35.425Z,10.73
2017-11-24T06:55:36.823Z,10.81
2017-11-24T06:56:38.238Z,10.94
2017-11-24T06:57:39.654Z,10.95
2017-11-24T06:58:41.069Z,10.96
2017-11-24T06:59:42.495Z,10.99
2017-11-24T07:00:43.904Z,10.99
2017-11-24T07:01:45.313Z,10.88
2017-11-24T07:02:46.718Z,10.96
2017-11-24T07:03:48.129Z,11.06
2017-11-24T07:04:49.548Z,10.89
2017-11-24T07:05:50.957Z,10.71
2017-11-24T07:06:52.382Z,10.78
2017-11-24T07:07:53.792Z,10.89
2017-11-24T07:08:55.208Z,11.13
2017-11-24T07:09:56.622Z,10.96
2017-11-24T07:10:58.042Z,11.02
2017-11-24T07:11:59.460Z,10.91
2017-11-24T07:13:00.869Z,10.89
2017-11-24T07:14:02.293Z,10.95
2017-11-24T07:15:03.714Z,10.94
2017-11-24T07:16:05.132Z,10.91
2017-11-24T07:17:06.540Z,10.94
2017-11-24T07:18:07.964Z,10.88
2017-11-24T07:19:09.375Z,10.92
2017-11-24T07:20:10.798Z,11.11
2017-11-24T07:21:12.202Z,11.09
2017-11-24T07:22:13.614Z,10.88
2017-11-24T07:23:15.031Z,10.89
2017-11-24T07:24:16.432Z,10.98
2017-11-24T07:25:17.849Z,10.86
2017-11-24T07:26:19.268Z,10.71
2017-11-24T07:27:20.670Z,10.92
2017-11-24T07:28:22.093Z,10.99
2017-11-24T07:29:23.494Z,10.99
2017-11-24T07:30:24.907Z,11.11
2017-11-24T07:31:26.335Z,11.17
2017-11-24T07:32:27.724Z,11.03
2017-11-24T07:33:29.150Z,10.94
2017-11-24T07:34:30.562Z,10.80
2017-11-24T07:35:31.968Z,10.89
2017-11-24T07:36:33.431Z,10.65
2017-11-24T07:37:34.853Z,10.59
2017-11-24T07:38:36.266Z,10.65
2017-11-24T07:39:37.687Z,10.81
2017-11-24T07:40:39.098Z,10.77
2017-11-24T07:41:40.569Z,10.83
2017-11-24T07:42:41.983Z,10.78
2017-11-24T07:43:43.415Z,10.91
2017-11-24T07:44:44.825Z,10.78
2017-11-24T07:45:46.274Z,10.81
2017-11-24T07:46:47.698Z,10.80
2017-11-24T07:47:49.114Z,10.76
2017-11-24T07:48:50.536Z,10.73
2017-11-24T07:49:51.946Z,10.73
2017-11-24T07:50:53.372Z,10.68
2017-11-24T07:51:54.780Z,10.65
2017-11-24T07:52:56.202Z,10.77
2017-11-24T07:53:57.608Z,10.86
2017-11-24T07:54:59.025Z,10.76
2017-11-24T07:56:00.441Z,10.81
2017-11-24T07:57:01.866Z,10.74
2017-11-24T07:58:03.286Z,10.81
2017-11-24T07:59:04.697Z,10.65
2017-11-24T08:00:06.113Z,10.60
2017-11-24T08:01:07.538Z,10.74
2017-11-24T08:02:08.950Z,10.92
2017-11-24T08:03:10.368Z,10.91
2017-11-24T08:04:11.777Z,10.92
2017-11-24T08:05:13.193Z,10.98
2017-11-24T08:06:14.613Z,11.09
2017-11-24T08:07:16.027Z,11.11
2017-11-24T08:08:17.448Z,11.09
2017-11-24T08:09:18.870Z,11.09
2017-11-24T08:10:20.289Z,11.11
2017-11-24T08:11:21.705Z,11.09
2017-11-24T08:12:23.133Z,11.11
2017-11-24T08:13:24.540Z,11.16
2017-11-24T08:14:25.953Z,11.13
2017-11-24T08:15:27.372Z,11.19
2017-11-24T08:16:28.782Z,11.27
2017-11-24T08:17:30.201Z,11.11
2017-11-24T08:18:31.621Z,11.21
2017-11-24T08:19:33.036Z,11.29
2017-11-24T08:20:34.451Z,11.29
2017-11-24T08:21:35.871Z,11.14
2017-11-24T08:22:37.284Z,11.43
2017-11-24T08:23:38.702Z,11.24
2017-11-24T08:24:40.122Z,11.32
2017-11-24T08:25:41.531Z,11.46
2017-11-24T08:26:42.958Z,11.36
2017-11-24T08:27:44.380Z,11.35
2017-11-24T08:28:45.859Z,11.41
2017-11-24T08:29:47.280Z,11.34
2017-11-24T08:30:48.691Z,11.46
2017-11-24T08:31:50.132Z,11.44
2017-11-24T08:32:51.550Z,11.31
2017-11-24T08:33:52.960Z,11.34
2017-11-24T08:34:54.378Z,11.44
2017-11-24T08:35:55.791Z,11.39
2017-11-24T08:36:57.210Z,11.39
2017-11-24T08:37:58.628Z,11.31
2017-11-24T08:39:00.052Z,11.39
2017-11-24T08:40:01.472Z,11.38
2017-11-24T08:41:02.900Z,11.27
2017-11-24T08:42:04.324Z,11.34
2017-11-24T08:43:05.741Z,11.29
2017-11-24T08:44:07.177Z,11.41
2017-11-24T08:45:08.585Z,11.35
2017-11-24T08:46:10.560Z,11.44
2017-11-24T08:47:11.979Z,11.46
2017-11-24T08:48:13.392Z,11.56
2017-11-24T08:49:14.804Z,11.52
2017-11-24T08:50:16.212Z,11.67
2017-11-24T08:51:17.793Z,11.64
2017-11-24T08:52:19.215Z,11.49
2017-11-24T08:53:20.752Z,11.46
2017-11-24T08:54:22.168Z,11.36
2017-11-24T08:55:23.655Z,11.46
2017-11-24T08:56:25.174Z,11.50
2017-11-24T08:57:26.577Z,11.53
2017-11-24T08:58:28.057Z,11.49
2017-11-24T08:59:29.557Z,11.49
2017-11-24T09:00:30.908Z,11.50
2017-11-24T09:01:32.330Z,11.47
2017-11-24T09:02:33.736Z,11.59
2017-11-24T09:03:35.332Z,11.62
2017-11-24T09:04:36.900Z,11.35
2017-11-24T09:05:38.310Z,11.49
2017-11-24T09:06:39.732Z,11.52
2017-11-24T09:07:41.149Z,11.20
2017-11-24T09:08:42.586Z,11.32
2017-11-24T09:09:43.990Z,11.31
2017-11-24T09:10:45.724Z,11.38
2017-11-24T09:11:47.557Z,11.39
2017-11-24T09:12:49.029Z,11.35
2017-11-24T09:13:51.127Z,11.43
2017-11-24T09:14:52.608Z,11.43
2017-11-24T09:15:54.153Z,11.50
2017-11-24T09:16:55.719Z,11.35
2017-11-24T09:17:57.307Z,11.38
2017-11-24T09:18:58.782Z,11.52
2017-11-24T09:20:00.423Z,11.36
2017-11-24T09:21:02.088Z,11.39
2017-11-24T09:22:03.671Z,11.19
2017-11-24T09:23:05.250Z,11.32
2017-11-24T09:24:06.903Z,11.32
2017-11-24T09:25:08.410Z,11.52
2017-11-24T09:26:09.888Z,11.52
2017-11-24T09:27:11.384Z,11.72
2017-11-24T09:28:12.848Z,11.67
2017-11-24T09:29:14.363Z,11.68
2017-11-24T09:30:15.817Z,11.52
2017-11-24T09:31:17.311Z,11.56
2017-11-24T09:32:18.721Z,11.56
2017-11-24T09:33:20.143Z,11.50
2017-11-24T09:34:21.556Z,11.35
2017-11-24T09:35:22.974Z,11.31
2017-11-24T09:36:24.393Z,11.19
2017-11-24T09:37:25.805Z,11.32
2017-11-24T09:38:27.229Z,11.44
2017-11-24T09:39:28.658Z,11.39
2017-11-24T09:40:30.079Z,11.44
2017-11-24T09:41:31.498Z,11.36
2017-11-24T09:42:32.919Z,11.32
2017-11-24T09:43:34.342Z,11.27
2017-11-24T09:44:35.765Z,11.25
2017-11-24T09:45:37.178Z,11.34
2017-11-24T09:46:38.612Z,11.17
2017-11-24T09:47:40.028Z,11.17
2017-11-24T09:48:41.443Z,11.24
2017-11-24T09:49:42.861Z,11.31
2017-11-24T09:50:44.276Z,11.43
2017-11-24T09:51:45.690Z,11.75
2017-11-24T09:52:47.121Z,11.87
2017-11-24T09:53:48.511Z,11.80
2017-11-24T09:54:49.930Z,11.85
2017-11-24T09:55:51.350Z,11.72
2017-11-24T09:56:52.783Z,11.74
2017-11-24T09:57:54.196Z,11.80
2017-11-24T09:58:55.609Z,11.75
2017-11-24T09:59:57.027Z,11.80
2017-11-24T10:00:58.438Z,11.82
2017-11-24T10:01:59.859Z,11.85
2017-11-24T10:03:01.278Z,11.87
2017-11-24T10:04:02.707Z,11.90
2017-11-24T10:05:04.135Z,11.64
2017-11-24T10:06:05.546Z,11.52
2017-11-24T10:07:06.966Z,11.57
2017-11-24T10:08:08.701Z,11.57
2017-11-24T10:09:10.035Z,11.49
2017-11-24T10:10:11.455Z,11.53
2017-11-24T10:11:13.002Z,11.62
2017-11-24T10:12:14.532Z,11.35
2017-11-24T10:13:15.942Z,11.28
2017-11-24T10:14:17.363Z,11.39
2017-11-24T10:15:18.800Z,11.36
2017-11-24T10:16:20.230Z,11.41
2017-11-24T10:17:21.649Z,11.35
2017-11-24T10:18:23.062Z,11.44
2017-11-24T10:19:24.470Z,11.32
2017-11-24T10:20:25.889Z,11.28
2017-11-24T10:21:27.353Z,11.38
2017-11-24T10:22:28.769Z,11.44
2017-11-24T10:23:30.197Z,11.52
2017-11-24T10:24:32.271Z,11.54
2017-11-24T10:25:33.694Z,11.49
2017-11-24T10:26:35.115Z,11.57
2017-11-24T10:27:36.536Z,11.44
2017-11-24T10:28:37.944Z,11.47
2017-11-24T10:29:39.368Z,11.54
2017-11-24T10:30:40.794Z,11.61
2017-11-24T10:31:42.214Z,11.64
2017-11-24T10:32:43.627Z,11.46
2017-11-24T10:33:45.047Z,11.49
2017-11-24T10:34:46.476Z,11.50
2017-11-24T10:35:47.884Z,11.61
2017-11-24T10:36:49.290Z,11.46
2017-11-24T10:37:50.710Z,11.44
2017-11-24T10:38:52.124Z,11.43
2017-11-24T10:39:53.543Z,11.53
2017-11-24T10:40:54.953Z,11.50
2017-11-24T10:41:56.373Z,11.65
2017-11-24T10:42:57.793Z,11.64
2017-11-24T10:43:59.223Z,11.61
2017-11-24T10:45:00.633Z,11.62
2017-11-24T10:46:02.166Z,11.50
2017-11-24T10:47:03.594Z,11.50
2017-11-24T10:48:05.017Z,11.64
2017-11-24T10:49:06.432Z,11.54
2017-11-24T10:50:07.841Z,11.49
2017-11-24T10:51:09.265Z,11.54
2017-11-24T10:52:10.679Z,11.56
2017-11-24T10:53:12.087Z,11.54
2017-11-24T10:54:13.502Z,11.54
2017-11-24T10:55:14.925Z,11.49
2017-11-24T10:56:16.337Z,11.53
2017-11-24T10:57:17.752Z,11.44
2017-11-24T10:58:19.169Z,11.57
2017-11-24T10:59:20.589Z,11.62
2017-11-24T11:00:22.014Z,11.62
2017-11-24T11:01:23.435Z,11.31
2017-11-24T11:02:24.863Z,11.53
2017-11-24T11:03:26.282Z,11.54
2017-11-24T11:04:27.698Z,11.47
2017-11-24T11:05:29.126Z,11.44
2017-11-24T11:06:30.551Z,11.39
2017-11-24T11:07:31.972Z,11.41
2017-11-24T11:08:33.382Z,11.38
2017-11-24T11:09:34.813Z,11.44
2017-11-24T11:10:36.223Z,11.39
2017-11-24T11:11:37.641Z,11.35
2017-11-24T11:12:39.058Z,11.54
2017-11-24T11:13:40.471Z,11.49
2017-11-24T11:14:41.888Z,11.49
2017-11-24T11:15:43.319Z,11.29
2017-11-24T11:16:45.514Z,11.34
2017-11-24T11:17:46.932Z,11.31
2017-11-24T11:18:48.352Z,11.19
2017-11-24T11:19:49.761Z,11.28
2017-11-24T11:20:51.187Z,11.20
2017-11-24T11:21:52.597Z,11.31
2017-11-24T11:22:54.012Z,11.41
2017-11-24T11:23:55.432Z,11.43
2017-11-24T11:24:56.847Z,11.32
2017-11-24T11:25:58.270Z,11.14
2017-11-24T11:26:59.679Z,11.19
2017-11-24T11:28:01.088Z,11.27
2017-11-24T11:29:02.506Z,11.34
2017-11-24T11:30:03.924Z,11.28
2017-11-24T11:31:05.343Z,11.13
2017-11-24T11:32:06.762Z,11.34
2017-11-24T11:33:08.181Z,11.32
2017-11-24T11:34:09.604Z,11.21
2017-11-24T11:35:11.018Z,11.17
2017-11-24T11:36:12.423Z,11.32
2017-11-24T11:37:13.843Z,11.27
2017-11-24T11:38:15.256Z,11.19
2017-11-24T11:39:16.691Z,11.24
2017-11-24T11:40:18.098Z,11.31
2017-11-24T11:41:19.515Z,11.34
2017-11-24T11:42:20.951Z,11.31
2017-11-24T11:43:22.366Z,11.41
2017-11-24T11:44:23.782Z,11.32
2017-11-24T11:45:25.202Z,11.32
2017-11-24T11:46:26.621Z,11.19
2017-11-24T11:47:28.033Z,11.17
2017-11-24T11:48:30.420Z,11.16
2017-11-24T11:49:31.842Z,11.16
2017-11-24T11:50:33.263Z,11.32
2017-11-24T11:51:34.681Z,11.54
2017-11-24T11:52:36.098Z,11.41
2017-11-24T11:53:37.509Z,11.29
2017-11-24T11:54:38.933Z,11.27
2017-11-24T11:55:40.349Z,11.11
2017-11-24T11:56:41.770Z,11.11
2017-11-24T11:57:43.180Z,11.16
2017-11-24T11:58:44.615Z,11.24
2017-11-24T11:59:46.034Z,11.11
2017-11-24T12:00:47.443Z,11.25
2017-11-24T12:01:48.859Z,11.31
2017-11-24T12:02:50.280Z,11.39
2017-11-24T12:03:51.699Z,11.34
2017-11-24T12:04:53.106Z,11.28
2017-11-24T12:05:54.523Z,11.20
2017-11-24T12:06:55.931Z,11.25
2017-11-24T12:07:57.352Z,11.32
2017-11-24T12:08:58.805Z,11.21
2017-11-24T12:10:00.205Z,11.31
2017-11-24T12:11:01.624Z,11.39
2017-11-24T12:12:03.042Z,11.21
2017-11-24T12:13:04.453Z,11.27
2017-11-24T12:14:05.870Z,11.20
2017-11-24T12:15:07.283Z,11.16
2017-11-24T12:16:08.695Z,11.10
2017-11-24T12:17:10.104Z,11.16
2017-11-24T12:18:11.531Z,11.20
2017-11-24T12:19:12.947Z,11.31
2017-11-24T12:20:14.373Z,11.32
2017-11-24T12:21:15.781Z,11.24
2017-11-24T12:22:17.178Z,11.28
2017-11-24T12:23:18.590Z,11.27
2017-11-24T12:24:20.012Z,11.20
2017-11-24T12:25:21.431Z,11.25
2017-11-24T12:26:22.846Z,11.41
2017-11-24T12:27:24.262Z,11.38
2017-11-24T12:28:25.685Z,11.38
2017-11-24T12:29:27.104Z,11.46
2017-11-24T12:30:28.523Z,11.19
2017-11-24T12:31:29.943Z,11.16
2017-11-24T12:32:31.365Z,11.16
2017-11-24T12:33:32.783Z,11.17
2017-11-24T12:34:34.213Z,11.28
2017-11-24T12:35:35.644Z,11.14
2017-11-24T12:36:37.062Z,11.10
2017-11-24T12:37:38.483Z,11.13
2017-11-24T12:38:39.909Z,11.13
2017-11-24T12:39:41.342Z,11.07
2017-11-24T12:40:42.752Z,11.03
2017-11-24T12:41:44.174Z,10.95
2017-11-24T12:42:45.584Z,11.07
2017-11-24T12:43:47.000Z,10.95
2017-11-24T12:44:48.424Z,10.96
2017-11-24T12:45:49.846Z,10.98
2017-11-24T12:46:51.264Z,11.06
2017-11-24T12:47:52.683Z,10.92
2017-11-24T12:48:54.096Z,11.02
2017-11-24T12:49:55.516Z,10.98
2017-11-24T12:50:56.945Z,11.02
2017-11-24T12:51:58.351Z,10.99
2017-11-24T12:52:59.769Z,10.98
2017-11-24T12:54:01.191Z,11.07
2017-11-24T12:55:02.613Z,10.98
2017-11-24T12:56:04.028Z,11.14
2017-11-24T12:57:05.441Z,11.09
2017-11-24T12:58:06.863Z,11.02
2017-11-24T12:59:08.275Z,11.01
2017-11-24T13:00:09.700Z,11.03
2017-11-24T13:01:11.117Z,11.13
2017-11-24T13:02:12.534Z,11.02
2017-11-24T13:03:13.950Z,11.07
2017-11-24T13:04:15.366Z,11.02
2017-11-24T13:05:16.782Z,11.09
2017-11-24T13:06:18.198Z,11.03
2017-11-24T13:07:19.614Z,10.84
2017-11-24T13:08:21.034Z,11.06
2017-11-24T13:09:22.447Z,11.16
2017-11-24T13:10:23.870Z,10.96
2017-11-24T13:11:25.286Z,10.95
2017-11-24T13:12:26.705Z,10.95